インディラ・ガンディー国際空港の過去48時間の天気

インディラ・ガンディー国際空港 (Delhi / Palam)

現在時刻: 5/26 08:12 IST (5/26 02:42 UTC) 以下の時間は現地時間です。

過去48時間のMETAR気象情報
時間 風向 風速(m/s) 視程 気温(℃) 湿度(%) 気圧(hPa) 天気現象
26 08:00 静穏 0 2200m 29 62 1006 風塵
26 07:30 西 2 2200m 28 79 1006 もや
26 07:00 不定 1 2200m 27 84 1006 もや
26 06:30 静穏 0 2200m 26 89 1005 もや
26 06:00 静穏 0 2200m 26 89 1005 もや
26 05:30 静穏 0 2800m 25 94 1005 もや
26 05:00 静穏 0 3000m 25 94 1004 もや
26 04:30 静穏 0 3000m 25 94 1004 もや
26 04:00 静穏 0 3200m 26 89 1004 もや
26 03:30 静穏 0 3500m 26 89 1004 もや
26 03:00 2 3500m 26 84 1004 もや
26 02:30 東北東 2 3500m 26 89 1004 もや
26 02:00 静穏 0 3500m 26 89 1004 もや
26 01:30 静穏 0 3500m 27 79 1005 もや
26 01:00 静穏 0 3500m 27 74 1005 煙霧
26 00:30 2 3500m 28 70 1005 煙霧
26 00:00 静穏 0 3500m 28 70 1005 煙霧
25 23:30 北北西 2 3500m 29 66 1005 煙霧
25 23:00 北西 2 3500m 28 70 1005 煙霧
25 22:30 北北西 2 3500m 29 62 1005 煙霧
25 22:00 不定 1 3500m 29 62 1005 煙霧
25 21:30 南南西 2 3500m 29 62 1005 煙霧
25 21:00 西 2 3500m 30 59 1005 煙霧
25 20:30 西 3 3500m 30 59 1005 煙霧
25 20:00 西 2 3500m 30 59 1005 煙霧
25 19:30 西北西 3 3500m 31 55 1004 煙霧
25 19:00 西 3 3500m 31 49 1004 煙霧
25 18:30 西 4 3500m 32 43 1004 煙霧
25 18:00 西 4 3500m 32 43 1004 煙霧
25 17:30 西 4 3500m 33 41 1004 煙霧
25 17:00 西 5 3500m 33 38 1004 煙霧
25 16:30 西 4 3500m 33 46 1004 煙霧
25 16:00 西南西 4 3500m 33 46 1004 煙霧
25 15:30 西 4 3500m 33 46 1004 煙霧
25 15:00 西 3 3500m 34 47 1005 煙霧
25 14:30 西 3 3500m 34 47 1005 煙霧
25 14:00 西南西 3 3500m 34 47 1006 煙霧
25 13:30 西南西 3 3500m 33 53 1006 煙霧
25 13:00 北西 2 3500m 33 56 1006 煙霧
25 12:30 北東 2 3500m 33 59 1007 煙霧
25 12:00 2 3500m 32 63 1007 煙霧
25 11:30 2 3500m 31 66 1007 煙霧
25 11:00 北北西 2 3500m 31 62 1007 煙霧
25 10:30 北北東 2 3500m 31 62 1007 煙霧
25 10:00 北北西 2 3500m 31 59 1008 煙霧
25 09:30 東北東 3 3500m 31 59 1008 煙霧
25 09:00 北東 2 2800m 30 66 1008 煙霧
25 08:30 北東 2 2500m 29 74 1008 煙霧
25 08:00 東北東 3 2500m 28 79 1008 もや
25 07:30 北東 2 2500m 27 79 1008 もや
25 07:00 北東 2 2500m 27 79 1007 もや
25 06:30 北東 2 2500m 26 84 1007 もや
25 06:00 静穏 0 3000m 26 84 1006 もや
25 05:30 静穏 0 3000m 26 84 1006 もや
25 05:00 静穏 0 3000m 26 84 1006 もや
25 04:30 静穏 0 3000m 26 84 1006 もや
25 04:00 静穏 0 3200m 26 79 1006 もや
25 03:30 静穏 0 3200m 26 79 1006 もや
25 03:00 静穏 0 3200m 26 79 1006 もや
25 02:30 静穏 0 3200m 26 79 1006 もや
25 02:00 静穏 0 3200m 26 79 1006 もや
25 01:30 静穏 0 3500m 26 79 1006 もや
25 01:00 静穏 0 3500m 27 74 1006 煙霧
25 00:30 静穏 0 3500m 27 74 1006 煙霧
25 00:00 静穏 0 3500m 27 74 1006 煙霧
24 23:30 静穏 0 3500m 27 70 1007 煙霧
24 23:00 静穏 0 3500m 27 70 1007 煙霧
24 22:30 静穏 0 3500m 28 66 1007 煙霧
24 22:00 2 3500m 28 66 1007 煙霧
24 21:30 東南東 2 3500m 29 58 1007 煙霧
24 21:00 東南東 2 3500m 29 58 1006 煙霧
24 20:30 東南東 2 3500m 29 58 1006 煙霧
24 20:00 2 3500m 29 58 1006 煙霧
24 19:30 2 3500m 30 55 1006 煙霧
24 19:00 3 3500m 30 55 1005 煙霧
24 18:30 3 4000m 31 52 1005 煙霧
24 18:00 3 4000m 31 52 1005 煙霧
24 17:30 3 4500m 32 49 1005 煙霧
24 17:00 東南東 2 4500m 32 49 1005 煙霧
24 16:30 3 5000m 32 52 1005 煙霧
24 16:00 東南東 2 5000m 32 56 1005 煙霧
24 15:30 東南東 3 5000m 32 52 1005 煙霧
24 15:00 3 5000m 32 56 1005 煙霧
24 14:30 南東 4 5000m 31 59 1005 煙霧
24 14:00 2 5000m 30 66 1006 煙霧
24 13:30 東南東 3 5000m 29 70 1006 煙霧
24 13:00 3 5000m 28 74 1006 煙霧
24 12:30 南東 4 4500m 28 79 1006 もや
24 12:00 東南東 4 4000m 27 84 1006 もや
24 11:30 南東 5 4000m 27 84 1006 もや
24 11:00 南東 4 4000m 27 84 1006 もや
24 10:30 東南東 5 3500m 27 84 1006 もや
24 10:00 東南東 5 3500m 26 84 1006 もや
24 09:30 東南東 4 3200m 25 94 1006 もや
24 09:00 東南東 5 3200m 24 100 1006 もや
24 08:30 東南東 5 2500m 24 94 1006 もや
VIDP 260230Z 00000KT 2200 DU NSC 29/21 Q1006 NOSIG
VIDP 260200Z 26004KT 2200 BR NSC 28/24 Q1006 NOSIG
VIDP 260130Z VRB02KT 2200 BR NSC 27/24 Q1006 NOSIG
VIDP 260100Z 00000KT 2200 BR NSC 26/24 Q1005 NOSIG
VIDP 260030Z 00000KT 2200 BR NSC 26/24 Q1005 NOSIG
VIDP 260000Z 00000KT 2800 BR NSC 25/24 Q1005 NOSIG
VIDP 252330Z 00000KT 3000 BR NSC 25/24 Q1004 NOSIG
VIDP 252300Z 00000KT 3000 BR NSC 25/24 Q1004 NOSIG
VIDP 252230Z 00000KT 3200 BR NSC 26/24 Q1004 BECMG 3000 BR
VIDP 252200Z 00000KT 3500 BR FEW100 26/24 Q1004 NOSIG
VIDP 252130Z 17003KT 3500 BR FEW100 26/23 Q1004 NOSIG
VIDP 252100Z 06004KT 3500 BR FEW100 26/24 Q1004 NOSIG
VIDP 252030Z 00000KT 3500 BR FEW100 26/24 Q1004 NOSIG
VIDP 252000Z 00000KT 3500 BR FEW100 27/23 Q1005 NOSIG
VIDP 251930Z 00000KT 3500 HZ FEW100 27/22 Q1005 NOSIG
VIDP 251900Z 35003KT 3500 HZ FEW100 28/22 Q1005 NOSIG
VIDP 251830Z 00000KT 3500 HZ FEW100 28/22 Q1005 NOSIG
VIDP 251800Z 33003KT 3500 HZ FEW100 29/22 Q1005 NOSIG
VIDP 251730Z 31003KT 3500 HZ FEW100 28/22 Q1005 NOSIG
VIDP 251700Z 34004KT 3500 HZ FEW100 29/21 Q1005 NOSIG
VIDP 251630Z VRB02KT 3500 HZ FEW100 29/21 Q1005 NOSIG
VIDP 251600Z 21004KT 3500 HZ FEW100 29/21 Q1005 NOSIG
VIDP 251530Z 28004KT 3500 HZ FEW100 30/21 Q1005 NOSIG
VIDP 251500Z 27005KT 3500 HZ FEW100 30/21 Q1005 NOSIG
VIDP 251430Z 27004KT 3500 HZ FEW100 30/21 Q1005 NOSIG
VIDP 251400Z 29006KT 3500 HZ FEW100 31/21 Q1004 NOSIG
VIDP 251330Z 28006KT 3500 HZ FEW100 31/19 Q1004 NOSIG
VIDP 251300Z 28007KT 3500 HZ FEW100 32/18 Q1004 NOSIG
VIDP 251230Z 27007KT 3500 HZ FEW040 SCT100 32/18 Q1004 NOSIG
VIDP 251200Z 27008KT 3500 HZ FEW040 SCT100 33/18 Q1004 NOSIG
VIDP 251130Z 27009KT 3500 HZ FEW040 SCT100 33/17 Q1004 NOSIG
VIDP 251100Z 28007KT 3500 HZ FEW040 SCT100 33/20 Q1004 NOSIG
VIDP 251030Z 25008KT 3500 HZ FEW040 SCT100 33/20 Q1004 NOSIG
VIDP 251000Z 27008KT 3500 HZ FEW040 SCT100 33/20 Q1004 NOSIG
VIDP 250930Z 26006KT 3500 HZ FEW040 SCT100 34/21 Q1005 NOSIG
VIDP 250900Z 27005KT 3500 HZ FEW040 SCT100 34/21 Q1005 NOSIG
VIDP 250830Z 25005KT 3500 HZ FEW040 SCT100 34/21 Q1006 NOSIG
VIDP 250800Z 25005KT 3500 HZ FEW040 SCT100 33/22 Q1006 NOSIG
VIDP 250730Z 32004KT 3500 HZ FEW040 SCT100 33/23 Q1006 NOSIG
VIDP 250700Z 05004KT 3500 HZ FEW040 SCT100 33/24 Q1007 NOSIG
VIDP 250630Z 09004KT 3500 HZ FEW040 SCT100 32/24 Q1007 NOSIG
VIDP 250600Z 35004KT 3500 HZ FEW040 SCT100 31/24 Q1007 NOSIG
VIDP 250530Z 33004KT 3500 HZ FEW040 SCT100 31/23 Q1007 NOSIG
VIDP 250500Z 03004KT 3500 HZ FEW040 SCT100 31/23 Q1007 NOSIG
VIDP 250430Z 34004KT 3500 HZ FEW100 31/22 Q1008 NOSIG
VIDP 250400Z 06005KT 3500 HZ FEW100 31/22 Q1008 NOSIG
VIDP 250330Z 05004KT 2800 HZ FEW100 30/23 Q1008 BECMG 3000 HZ
VIDP 250300Z 05003KT 2500 HZ FEW100 29/24 Q1008 NOSIG
VIDP 250230Z 06005KT 2500 BR FEW100 28/24 Q1008 NOSIG
VIDP 250200Z 05004KT 2500 BR FEW100 27/23 Q1008 NOSIG
VIDP 250130Z 05003KT 2500 BR FEW100 27/23 Q1007 NOSIG
VIDP 250100Z 04003KT 2500 BR FEW100 26/23 Q1007 NOSIG
VIDP 250030Z 00000KT 3000 BR FEW100 26/23 Q1006 NOSIG
VIDP 250000Z 00000KT 3000 BR FEW100 26/23 Q1006 NOSIG
VIDP 242330Z 00000KT 3000 BR FEW100 26/23 Q1006 NOSIG
VIDP 242300Z 00000KT 3000 BR FEW100 26/23 Q1006 NOSIG
VIDP 242230Z 00000KT 3200 BR SCT100 26/22 Q1006 BECMG 3000 BR
VIDP 242200Z 00000KT 3200 BR SCT100 26/22 Q1006 NOSIG
VIDP 242130Z 00000KT 3200 BR SCT100 26/22 Q1006 NOSIG
VIDP 242100Z 00000KT 3200 BR SCT100 26/22 Q1006 NOSIG
VIDP 242030Z 00000KT 3200 BR SCT100 26/22 Q1006 NOSIG
VIDP 242000Z 00000KT 3500 BR SCT100 26/22 Q1006 NOSIG
VIDP 241930Z 00000KT 3500 HZ SCT100 27/22 Q1006 NOSIG
VIDP 241900Z 00000KT 3500 HZ NSC 27/22 Q1006 NOSIG
VIDP 241830Z 00000KT 3500 HZ NSC 27/22 Q1006 NOSIG
VIDP 241800Z 00000KT 3500 HZ NSC 27/21 Q1007 NOSIG
VIDP 241730Z 00000KT 3500 HZ FEW100 27/21 Q1007 NOSIG
VIDP 241700Z 00000KT 3500 HZ FEW100 28/21 Q1007 NOSIG
VIDP 241630Z 09003KT 3500 HZ FEW100 28/21 Q1007 NOSIG
VIDP 241600Z 11004KT 3500 HZ FEW100 29/20 Q1007 NOSIG
VIDP 241530Z 12004KT 3500 HZ FEW100 29/20 Q1006 NOSIG
VIDP 241500Z 11004KT 3500 HZ FEW100 29/20 Q1006 NOSIG
VIDP 241430Z 08004KT 3500 HZ FEW100 29/20 Q1006 NOSIG
VIDP 241400Z 09004KT 3500 HZ FEW100 30/20 Q1006 NOSIG
VIDP 241330Z 09005KT 3500 HZ FEW100 30/20 Q1005 NOSIG
VIDP 241300Z 08005KT 4000 HZ FEW100 31/20 Q1005 NOSIG
VIDP 241230Z 09005KT 4000 HZ FEW100 31/20 Q1005 NOSIG
VIDP 241200Z 08005KT 4500 HZ FEW100 32/20 Q1005 NOSIG
VIDP 241130Z 11004KT 4500 HZ FEW100 32/20 Q1005 NOSIG
VIDP 241100Z 09005KT 5000 HZ SCT100 32/21 Q1005 NOSIG
VIDP 241030Z 11004KT 5000 HZ SCT100 32/22 Q1005 NOSIG
VIDP 241000Z 11006KT 5000 HZ SCT100 32/21 Q1005 NOSIG
VIDP 240930Z 10005KT 5000 HZ SCT100 32/22 Q1005 NOSIG
VIDP 240900Z 14007KT 5000 HZ SCT100 31/22 Q1005 NOSIG
VIDP 240830Z 17004KT 5000 HZ SCT100 30/23 Q1006 NOSIG
VIDP 240800Z 12006KT 5000 HZ SCT035 BKN100 29/23 Q1006 NOSIG
VIDP 240730Z 10006KT 5000 HZ SCT035 BKN100 28/23 Q1006 NOSIG
VIDP 240700Z 13007KT 4500 BR SCT035 BKN100 28/24 Q1006 BECMG 5000 BR
VIDP 240630Z 12008KT 4000 BR SCT035 BKN100 27/24 Q1006 NOSIG
VIDP 240600Z 13009KT 4000 BR FEW035 SCT100 27/24 Q1006 NOSIG
VIDP 240530Z 13008KT 4000 BR FEW035 SCT100 27/24 Q1006 NOSIG
VIDP 240500Z 12009KT 3500 BR FEW100 27/24 Q1006 NOSIG
VIDP 240430Z 12009KT 3500 BR FEW100 26/23 Q1006 NOSIG
VIDP 240400Z 12008KT 3200 BR FEW035 SCT100 25/24 Q1006 NOSIG
VIDP 240330Z 11009KT 3200 BR FEW035 SCT100 24/24 Q1006 NOSIG
VIDP 240300Z 11009KT 2500 BR FEW035 SCT100 24/23 Q1006 BECMG 3000 BR